Terminal Aerodrome Forecast
Issued by NWS Blacksburg, VA

Current Version | Previous Version | Graphics & Text | Print | Product List | Glossary On
Versions: 1 2 3 4 5 6 7 8 9 10 11 12 13 14 15 16 17 18 19 20 21 22 23 24 25 26 27 28 29 30 31 32 33
000
FTUS41 KRNK 271224 AAA
TAFBLF
TAF AMD
KBLF 271224Z 2712/2812 24003KT P6SM SHRA VCTS BKN035CB
      TEMPO 2712/2714 1SM TSRA BR BKN025CB
     FM271500 25005KT P6SM VCSH BKN045 OVC100
     FM271800 26006KT P6SM VCTS BKN045CB OVC100
     FM280200 VRB03KT P6SM VCSH BKN050
     FM280600 00000KT 4SM BR BKN050=

USA.gov is the U.S. government's official web portal to all federal, state and local government web resources and services.